Andamooka, South Australia

7:29 AM ACDT on February 15, 2016 (GMT +1030)
Roxby Downs | | Change Station
CLOSE
Current Station
Personal Weather Station
Location: Roxby Downs, SOUTH AUSTRALIA
Elevation: 371 ft
Nearby Weather Stations

Elev 371 ft 30.57 °S, 136.91 °E | Updated 27 seconds ago

Clear
Clear
66.6 °F
Feels Like 66.6 °F
N
9.6
Wind Variable Wind from SSE
Gusts 12.3 mph

Today
High -- | Low -- °F
--% Chance of Precip.
Yesterday
High -- | Low -- °F
Precip. -- in
Pressure 30.01 in
Visibility -9999.0 miles
Clouds
Dew Point 55 °F
Humidity 67%
Rainfall 0.00 in
Snow Depth Not available.
7:00 AM 8:10 PM
Waxing Crescent, 45% visible
METAR YPWR 142030Z 19014KT CAVOK 18/12 Q1016
Pressure 30.01 in
Visibility -9999.0 miles
Clouds
Dew Point 55 °F
Humidity 67%
Rainfall 0.00 in
Snow Depth Not available.
7:00 AM 8:10 PM
Waxing Crescent, 45% visible
METAR YPWR 142030Z 19014KT CAVOK 18/12 Q1016

10-Day Weather Forecast

Almanac

Astronomy

Feb. 15, 2016 Rise Set
Actual Time
Civil Twilight
Nautical Twilight
Astronomical Twilight
Moon
Length of Visible Light
Length of Day
Tomorrow will be .
, % of the Moon is Illuminated

Today's Extremes

Country Highs Country Lows

Community

WunderPhotos

Upload Photos

1,892,882 photos uploaded!

WunderBlog® & News

Nearby

Air Quality

  Air Quality AQ Index Pollutant
Not available.

Snow Depth

Station Depth Elevation

Earthquake Activity

City Distance Mag. Time & Date
Minimum magnitude displayed is 2.5.

Coastal Water Temperatures

Place Temperature

Stations

Nearby Weather Stations

Station Location Temp. Windchill Dew Point Humidity Wind Precip. Elev Updated Type